Time;durP1;ratioP1;P1;durP2;ratioP2;P2;SDS_P1;SDS_P2;PMS_P1;PMS_P2;Temp;Humidity;BMP_temperature;BMP_pressure;BME280_temperature;BME280_humidity;BME280_pressure;Samples;Min_cycle;Max_cycle;Signal;HPM_P1;HPM_P2
2023/07/25 00:00:41;;;;;;;;;;;15.70;99.90;;;14.71;100.00;99597.78;5032943;28;20069;-78
2023/07/25 00:03:07;;;;;;;14.23;5.30;;;15.70;99.90;;;14.67;100.00;99593.69;4996714;28;20040;-78
2023/07/25 00:05:34;;;;;;;16.90;5.43;;;15.70;99.90;;;14.67;100.00;99606.94;4984848;28;20112;-78
2023/07/25 00:08:02;;;;;;;14.95;5.80;;;15.70;99.90;;;14.65;100.00;99607.06;4998954;28;20613;-78
2023/07/25 00:10:28;;;;;;;19.50;6.50;;;15.70;99.90;;;14.63;100.00;99605.50;5012434;28;20349;-78
2023/07/25 00:12:55;;;;;;;24.05;6.22;;;15.60;99.90;;;14.60;100.00;99608.38;5001611;28;20040;-78
2023/07/25 00:15:21;;;;;;;15.20;6.32;;;15.60;99.90;;;14.56;100.00;99611.28;4995244;28;20038;-77
2023/07/25 00:17:47;;;;;;;17.98;6.38;;;15.50;99.90;;;14.55;100.00;99606.13;5031076;28;20116;-77
2023/07/25 00:20:15;;;;;;;19.38;7.28;;;15.50;99.90;;;14.53;100.00;99616.78;5002625;28;20038;-78
2023/07/25 00:22:41;;;;;;;24.45;7.30;;;15.50;99.90;;;14.53;100.00;99627.38;5032157;28;20030;-78
2023/07/25 00:25:08;;;;;;;24.65;7.72;;;15.60;99.90;;;14.57;100.00;99626.22;4998623;28;20080;-78
2023/07/25 00:27:34;;;;;;;20.45;7.55;;;15.60;99.90;;;14.66;100.00;99627.28;5014167;28;20056;-78
2023/07/25 00:29:59;;;;;;;18.67;7.20;;;15.70;99.90;;;14.72;100.00;99626.78;4990542;28;20034;-77
2023/07/25 00:32:25;;;;;;;17.10;7.28;;;15.70;99.90;;;14.78;100.00;99641.34;4988728;28;20503;-77
2023/07/25 00:34:51;;;;;;;28.85;8.27;;;16.10;99.90;;;14.86;100.00;99635.41;5033705;28;20062;-79
2023/07/25 00:37:17;;;;;;;14.82;8.25;;;15.80;99.90;;;14.93;100.00;99640.09;5010342;28;20069;-78
2023/07/25 00:39:42;;;;;;;32.42;9.10;;;15.90;99.90;;;15.01;100.00;99649.22;5028766;28;20164;-77
2023/07/25 00:42:08;;;;;;;22.55;10.13;;;15.90;99.90;;;15.03;100.00;99652.59;4979527;28;20100;-78
2023/07/25 00:44:34;;;;;;;34.05;10.07;;;16.00;99.90;;;15.08;100.00;99650.41;4996067;28;20141;-78
2023/07/25 00:46:59;;;;;;;;;;;16.00;99.90;;;15.11;100.00;99650.97;4997072;28;20381;-78
2023/07/25 00:49:26;;;;;;;29.20;11.55;;;16.10;99.90;;;15.13;100.00;99657.00;5008090;28;20000;-78
2023/07/25 00:51:51;;;;;;;22.58;11.77;;;16.10;99.90;;;15.16;100.00;99651.47;5014370;28;20049;-78
2023/07/25 00:54:17;;;;;;;23.83;12.45;;;16.10;99.90;;;15.21;100.00;99644.94;5024986;28;20496;-77
2023/07/25 00:56:43;;;;;;;32.40;13.60;;;16.20;99.90;;;15.22;100.00;99650.09;5011886;28;20037;-78
2023/07/25 00:59:09;;;;;;;28.92;13.48;;;16.20;99.90;;;15.27;100.00;99641.75;5016619;28;20112;-78
2023/07/25 01:01:39;;;;;;;44.50;14.82;;;16.20;99.90;;;15.32;100.00;99643.06;5015819;28;20042;-78
2023/07/25 01:04:04;;;;;;;33.10;13.77;;;16.30;99.90;;;15.31;100.00;99644.03;5021857;28;20042;-78
2023/07/25 01:06:32;;;;;;;28.83;14.00;;;16.20;99.90;;;15.33;100.00;99641.25;4998669;28;20043;-78
2023/07/25 01:08:58;;;;;;;32.80;13.43;;;16.20;99.90;;;15.34;100.00;99645.59;4999831;28;20033;-78
2023/07/25 01:11:24;;;;;;;31.25;13.23;;;16.30;99.90;;;15.34;100.00;99646.44;4970782;28;20057;-78
2023/07/25 01:13:51;;;;;;;28.27;12.93;;;16.30;99.90;;;15.35;100.00;99648.09;5010089;28;20463;-78
2023/07/25 01:16:23;;;;;;;23.65;12.60;;;16.30;99.90;;;15.38;100.00;99653.16;5001833;28;20025;-78
2023/07/25 01:18:51;;;;;;;29.20;12.38;;;16.30;99.90;;;15.37;100.00;99653.28;4992477;28;20038;-78
2023/07/25 01:21:20;;;;;;;33.75;13.77;;;16.30;99.90;;;15.34;100.00;99659.69;4998564;28;20041;-78
2023/07/25 01:23:46;;;;;;;26.60;11.98;;;16.30;99.90;;;15.37;100.00;99669.19;5024440;28;20419;-79
2023/07/25 01:26:12;;;;;;;37.42;12.80;;;16.30;99.90;;;15.38;100.00;99671.72;4981539;28;20030;-78
2023/07/25 01:28:37;;;;;;;32.28;12.27;;;16.30;99.90;;;15.42;100.00;99666.16;5024625;28;20056;-77
2023/07/25 01:31:04;;;;;;;;;;;16.30;99.90;;;15.38;100.00;99670.91;4989777;28;20042;-78
2023/07/25 01:33:30;;;;;;;31.35;11.55;;;16.30;99.90;;;15.38;100.00;99666.44;5010310;28;19913;-78
2023/07/25 01:35:56;;;;;;;28.70;11.55;;;16.30;99.90;;;15.41;100.00;99667.13;5014998;28;20078;-78
2023/07/25 01:38:22;;;;;;;36.90;13.55;;;16.30;99.90;;;15.44;100.00;99666.88;4993145;28;20109;-78
2023/07/25 01:40:47;;;;;;;33.53;12.52;;;16.40;99.90;;;15.46;100.00;99676.38;5003177;28;20061;-78
2023/07/25 01:43:16;;;;;;;;;;;16.40;99.90;;;15.44;100.00;99669.53;5007929;28;20112;-78
2023/07/25 01:45:42;;;;;;;29.75;11.90;;;16.40;99.90;;;15.44;100.00;99677.47;5011708;28;19913;-78
2023/07/25 01:48:08;;;;;;;24.13;11.27;;;16.40;99.90;;;15.47;100.00;99674.59;5008816;28;20065;-78
2023/07/25 01:50:33;;;;;;;;;;;16.40;99.90;;;15.43;100.00;99678.47;4989173;28;20524;-78
2023/07/25 01:52:59;;;;;;;29.58;10.75;;;16.40;99.90;;;15.42;100.00;99685.59;5009650;28;20446;-78
2023/07/25 01:55:25;;;;;;;29.17;10.80;;;16.30;99.90;;;15.43;100.00;99684.59;4987078;28;20521;-78
2023/07/25 01:57:50;;;;;;;29.20;11.45;;;16.40;99.90;;;15.45;100.00;99681.84;5013601;28;20054;-78
2023/07/25 02:00:16;;;;;;;;;;;16.40;99.90;;;15.44;100.00;99680.97;5005769;28;20080;-78
2023/07/25 02:02:45;;;;;;;20.70;9.82;;;16.40;99.90;;;15.44;100.00;99685.44;4992389;28;19925;-78
2023/07/25 02:05:10;;;;;;;28.80;10.05;;;16.40;99.90;;;15.47;100.00;99685.19;5010691;28;20121;-78
2023/07/25 02:07:37;;;;;;;22.90;8.93;;;16.40;99.90;;;15.48;100.00;99686.88;5008053;28;20167;-78
2023/07/25 02:10:03;;;;;;;24.30;9.15;;;16.40;99.90;;;15.48;100.00;99679.75;5002350;28;20045;-78
2023/07/25 02:12:30;;;;;;;27.30;8.43;;;16.40;99.90;;;15.54;100.00;99691.66;5008250;28;20109;-77
2023/07/25 02:14:56;;;;;;;24.50;8.88;;;16.50;99.90;;;15.54;100.00;99692.50;4982063;28;20034;-78
2023/07/25 02:17:21;;;;;;;22.88;8.50;;;16.50;99.90;;;15.55;100.00;99693.34;5023028;28;20057;-78
2023/07/25 02:19:47;;;;;;;45.95;8.50;;;16.50;99.90;;;15.54;100.00;99689.00;5037502;28;20034;-78
2023/07/25 02:22:13;;;;;;;;;;;16.50;99.90;;;15.47;100.00;99701.13;5002856;28;20057;-78
2023/07/25 02:24:42;;;;;;;25.73;8.25;;;16.40;99.90;;;15.43;100.00;99697.03;5011003;28;20012;-78
2023/07/25 02:27:07;;;;;;;23.48;7.82;;;16.40;99.90;;;15.43;100.00;99705.00;5038063;28;20030;-78
2023/07/25 02:29:33;;;;;;;22.20;7.97;;;16.40;99.90;;;15.41;100.00;99712.22;5022370;28;20033;-77
2023/07/25 02:31:59;;;;;;;24.13;7.30;;;16.30;99.90;;;15.36;100.00;99710.81;4999170;28;20145;-78
2023/07/25 02:34:24;;;;;;;;;;;16.30;99.90;;;15.31;100.00;99712.13;5015876;28;20054;-78
2023/07/25 02:36:50;;;;;;;16.25;6.10;;;16.30;99.90;;;15.25;100.00;99724.09;5008837;28;19924;-77
2023/07/25 02:39:16;;;;;;;;;;;16.30;99.90;;;15.21;100.00;99720.03;4996052;28;20073;-78
2023/07/25 02:41:42;;;;;;;15.52;6.47;;;16.20;99.90;;;15.16;100.00;99725.69;5007491;28;19913;-78
2023/07/25 02:44:07;;;;;;;15.05;5.32;;;16.10;99.90;;;15.14;100.00;99729.41;5019239;28;20557;-78
2023/07/25 02:46:33;;;;;;;;;;;16.10;99.90;;;15.09;100.00;99728.97;4980153;28;20146;-78
2023/07/25 02:48:59;;;;;;;20.30;5.35;;;16.10;99.90;;;15.08;100.00;99724.66;4989646;28;20428;-78
2023/07/25 02:51:24;;;;;;;11.77;5.18;;;16.00;99.90;;;14.97;100.00;99725.50;5016486;28;20038;-78
2023/07/25 02:53:50;;;;;;;22.33;5.35;;;16.00;99.90;;;14.89;100.00;99731.41;5023967;28;20054;-78
2023/07/25 02:56:16;;;;;;;11.77;5.10;;;15.90;99.90;;;14.81;100.00;99728.53;5039389;28;20057;-78
2023/07/25 02:58:42;;;;;;;;;;;15.80;99.90;;;14.69;100.00;99729.53;5027938;28;20062;-78
2023/07/25 03:01:07;;;;;;;20.80;4.43;;;15.70;99.90;;;14.65;100.00;99728.09;4992221;28;19919;-78
2023/07/25 03:03:33;;;;;;;;;;;15.70;99.90;;;14.55;100.00;99726.16;4988226;28;20115;-78
2023/07/25 03:06:01;;;;;;;17.02;3.97;;;15.60;99.90;;;14.53;100.00;99728.03;4989415;28;20378;-78
2023/07/25 03:08:27;;;;;;;18.08;3.45;;;15.60;99.90;;;14.52;100.00;99742.28;5024778;28;20368;-78
2023/07/25 03:10:53;;;;;;;19.38;3.70;;;15.50;99.90;;;14.51;100.00;99748.53;5009092;28;20431;-77
2023/07/25 03:13:18;;;;;;;20.17;3.95;;;15.50;99.90;;;14.48;100.00;99740.81;5017636;28;20263;-78
2023/07/25 03:15:44;;;;;;;16.98;3.22;;;15.50;99.90;;;14.46;100.00;99747.22;4982828;28;20168;-78
2023/07/25 03:18:12;;;;;;;;;;;15.40;99.90;;;14.36;100.00;99742.63;4999297;28;20092;-78
2023/07/25 03:20:38;;;;;;;19.30;3.63;;;15.40;99.90;;;14.34;100.00;99749.00;4967462;28;19977;-78
2023/07/25 03:23:04;;;;;;;14.63;3.17;;;15.40;99.90;;;14.33;100.00;99745.50;5018051;28;20116;-78
2023/07/25 03:25:30;;;;;;;17.23;3.50;;;15.30;99.90;;;14.32;100.00;99750.94;4998337;28;20051;-77
2023/07/25 03:27:55;;;;;;;17.00;3.20;;;15.30;99.90;;;14.31;100.00;99746.59;5011720;28;20068;-78
2023/07/25 03:30:21;;;;;;;;;;;15.30;99.90;;;14.26;100.00;99746.13;5008661;28;20053;-78
2023/07/25 03:32:47;;;;;;;15.77;3.70;;;15.30;99.90;;;14.27;100.00;99753.09;4998218;28;19933;-78
2023/07/25 03:35:12;;;;;;;;;;;15.20;99.90;;;14.25;100.00;99747.91;5000514;28;20132;-77
2023/07/25 03:37:38;;;;;;;24.52;3.63;;;15.20;99.90;;;14.27;100.00;99743.34;4980790;28;20435;-78
2023/07/25 03:40:10;;;;;;;;;;;14.70;99.90;;;14.33;100.00;99753.44;4978172;28;20512;-78
2023/07/25 03:42:35;;;;;;;17.08;3.97;;;15.30;99.90;;;14.37;100.00;99751.41;4993667;28;19980;-78
2023/07/25 03:45:01;;;;;;;16.85;3.10;;;15.30;99.90;;;14.42;100.00;99761.66;5007820;28;20069;-78
2023/07/25 03:47:27;;;;;;;13.65;3.30;;;15.30;99.90;;;14.44;100.00;99757.06;5007006;28;20989;-78
2023/07/25 03:49:53;;;;;;;13.68;3.25;;;15.40;99.90;;;14.49;100.00;99761.06;4996100;28;20436;-79
2023/07/25 03:52:19;;;;;;;;;;;15.40;99.90;;;14.48;100.00;99767.31;5024730;28;20103;-78
2023/07/25 03:54:44;;;;;;;18.08;3.88;;;15.40;99.90;;;14.51;100.00;99767.09;5008171;28;19913;-78
2023/07/25 03:57:10;;;;;;;11.43;3.15;;;15.40;99.90;;;14.60;100.00;99759.38;5034044;28;20046;-78
2023/07/25 03:59:36;;;;;;;16.60;3.47;;;15.50;99.90;;;14.70;100.00;99766.50;4975388;28;20113;-78
2023/07/25 04:02:02;;;;;;;19.50;3.75;;;15.60;99.90;;;14.78;100.00;99779.16;5004680;28;20499;-78
2023/07/25 04:04:27;;;;;;;14.98;3.70;;;15.60;99.90;;;14.84;100.00;99773.38;5022758;28;20075;-78
2023/07/25 04:06:53;;;;;;;17.50;3.88;;;15.70;99.90;;;14.96;100.00;99776.81;5015684;28;20034;-78
2023/07/25 04:09:19;;;;;;;;;;;15.70;99.90;;;14.89;100.00;99770.34;5008878;28;20117;-78
2023/07/25 04:11:44;;;;;;;18.88;4.15;;;15.70;99.90;;;14.92;100.00;99770.94;4999610;28;19988;-78
2023/07/25 04:14:10;;;;;;;20.15;4.22;;;15.80;99.90;;;14.97;100.00;99776.72;5032928;28;20100;-77
2023/07/25 04:16:41;;;;;;;;;;;15.80;99.90;;;14.93;100.00;99777.09;5021734;28;20042;-78
2023/07/25 04:19:06;;;;;;;16.73;3.90;;;15.80;99.90;;;14.95;100.00;99781.28;5007452;28;20314;-78
2023/07/25 04:21:32;;;;;;;18.20;3.80;;;15.80;99.90;;;15.01;100.00;99779.09;4961722;28;20109;-78
2023/07/25 04:23:58;;;;;;;;;;;15.80;99.90;;;14.93;100.00;99782.38;5001581;28;20155;-77
2023/07/25 04:26:23;;;;;;;14.35;3.60;;;15.80;99.90;;;15.04;100.00;99789.47;5012059;28;19932;-77
2023/07/25 04:28:49;;;;;;;19.05;3.70;;;15.90;99.90;;;15.63;100.00;99802.31;5005585;28;20097;-78
2023/07/25 04:31:15;;;;;;;18.67;3.20;;;16.60;99.90;;;16.45;100.00;99806.16;5010902;28;20898;-78
2023/07/25 04:33:42;;;;;;;15.65;3.40;;;16.90;99.90;;;16.68;99.13;99809.50;4989130;28;20025;-78
2023/07/25 04:36:07;;;;;;;16.40;3.13;;;17.00;99.90;;;16.65;96.98;99792.00;4997899;28;20072;-78
2023/07/25 04:38:33;;;;;;;15.95;3.22;;;17.10;99.90;;;16.63;96.15;99807.25;4977797;28;20038;-78
2023/07/25 04:40:59;;;;;;;;;;;17.10;99.90;;;19.04;89.37;99825.22;5023436;28;20067;-78
2023/07/25 04:43:25;;;;;;;14.35;2.92;;;18.30;99.90;;;18.10;86.77;99813.69;4998674;28;19925;-78
2023/07/25 04:45:50;;;;;;;15.18;3.33;;;18.30;99.90;;;17.92;86.73;99813.59;5007040;28;20037;-78
2023/07/25 04:48:16;;;;;;;18.58;3.15;;;18.70;99.90;;;18.93;83.39;99828.09;4996784;28;20099;-78
2023/07/25 04:50:44;;;;;;;14.43;2.92;;;19.20;99.90;;;19.44;79.70;99826.69;4996535;28;20046;-78
2023/07/25 04:53:12;;;;;;;11.98;2.53;;;19.90;99.90;;;21.10;74.90;99831.31;5003457;28;20045;-78
2023/07/25 04:55:38;;;;;;;16.38;3.08;;;20.40;99.90;;;20.77;73.23;99824.13;5003733;28;20038;-78
2023/07/25 04:58:04;;;;;;;10.55;2.25;;;20.90;99.90;;;22.22;70.43;99831.00;4991432;28;20034;-78
2023/07/25 05:00:30;;;;;;;13.38;2.53;;;21.80;99.90;;;23.66;65.33;99847.00;4973636;28;20459;-79
2023/07/25 05:02:56;;;;;;;23.98;2.22;;;22.90;99.90;;;25.58;60.61;99863.66;4955155;28;20044;-78
2023/07/25 05:05:21;;;;;;;11.95;2.28;;;23.70;99.90;;;24.77;60.13;99853.69;4978857;28;20037;-79
2023/07/25 05:07:53;;;;;;;13.63;2.00;;;24.40;99.90;;;26.72;56.38;99877.19;4987003;28;20068;-78
2023/07/25 05:10:19;;;;;;;9.35;1.98;;;25.10;99.90;;;27.50;54.92;99879.69;5008438;28;20043;-79
2023/07/25 05:12:44;;;;;;;15.30;2.10;;;25.30;99.90;;;26.21;55.77;99869.28;4981020;28;20022;-78
2023/07/25 05:15:10;;;;;;;18.60;2.13;;;25.00;99.90;;;25.68;56.92;99857.94;5004185;28;20466;-78
2023/07/25 05:17:36;;;;;;;15.98;1.80;;;24.60;99.90;;;23.97;59.68;99848.00;5016160;28;20041;-78
2023/07/25 05:20:09;;;;;;;17.08;2.47;;;23.70;99.90;;;22.45;63.62;99836.56;5013494;28;20042;-78
2023/07/25 05:22:35;;;;;;;11.60;2.00;;;22.90;99.90;;;22.25;64.04;99842.28;4975219;28;20537;-78
2023/07/25 05:25:01;;;;;;;14.45;1.85;;;22.20;99.90;;;21.20;66.88;99823.13;5003813;28;20106;-78
2023/07/25 05:27:26;;;;;;;;;;;22.00;99.90;;;23.26;63.09;99840.00;4986906;28;20120;-78
2023/07/25 05:29:52;;;;;;;21.13;2.13;;;21.90;99.90;;;21.62;65.43;99829.47;4977402;28;19995;-79
2023/07/25 05:32:22;;;;;;;;;;;21.90;99.90;;;20.24;68.03;99829.47;5001003;28;20054;-78
2023/07/25 05:34:48;;;;;;;14.63;2.05;;;20.80;99.90;;;19.63;71.82;99825.72;4999182;28;19917;-79
2023/07/25 05:37:16;;;;;;;11.75;1.85;;;20.40;99.90;;;19.84;73.72;99827.28;4996253;28;20038;-78
2023/07/25 05:39:42;;;;;;;10.95;2.20;;;21.20;99.90;;;23.51;63.69;99856.84;4970648;28;20045;-78
2023/07/25 05:42:08;;;;;;;13.88;2.22;;;21.50;99.90;;;21.61;67.14;99835.84;4998338;28;20515;-78
2023/07/25 05:44:34;;;;;;;10.18;2.22;;;21.40;99.90;;;20.81;69.47;99834.34;4967185;28;20072;-78
2023/07/25 05:47:05;;;;;;;;;;;21.50;99.90;;;23.17;64.95;99858.00;4985367;28;20610;-78
2023/07/25 05:49:31;;;;;;;13.80;2.28;;;22.10;99.90;;;22.45;63.45;99848.13;5017080;28;19920;-78
2023/07/25 05:51:56;;;;;;;13.35;2.15;;;21.90;99.90;;;21.38;66.52;99844.47;4974975;28;20511;-78
2023/07/25 05:54:22;;;;;;;9.65;2.00;;;21.40;99.90;;;20.35;69.96;99840.91;4981208;28;20127;-78
2023/07/25 05:56:48;;;;;;;;;;;21.30;99.90;;;20.81;69.87;99839.69;4997903;28;20510;-79
2023/07/25 05:59:23;;;;;;;14.48;2.10;;;21.40;99.90;;;21.88;66.75;99848.94;4981092;28;19947;-78
2023/07/25 06:01:49;;;;;;;7.43;1.85;;;21.50;99.90;;;21.19;67.96;99847.41;4995074;28;20053;-78
2023/07/25 06:04:15;;;;;;;18.02;2.08;;;21.40;99.90;;;21.12;68.63;99839.16;5002204;28;20065;-78
2023/07/25 06:06:41;;;;;;;17.00;2.50;;;21.50;99.90;;;21.28;68.66;99830.38;4993674;28;20491;-78
2023/07/25 06:09:13;;;;;;;10.20;1.73;;;21.60;99.90;;;21.69;67.75;99842.03;5008694;28;20033;-79
2023/07/25 06:11:39;;;;;;;9.32;2.28;;;21.90;99.90;;;22.39;65.60;99837.22;4959592;28;21546;-78
2023/07/25 06:14:05;;;;;;;12.85;2.50;;;22.00;99.90;;;21.85;67.08;99846.56;5004453;28;20037;-78
2023/07/25 06:16:31;;;;;;;18.27;2.25;;;22.40;99.90;;;24.50;61.60;99859.69;5002405;28;20459;-78
2023/07/25 06:18:57;;;;;;;8.27;2.00;;;23.20;99.90;;;25.07;59.25;99863.59;4951158;28;20124;-79
2023/07/25 06:21:23;;;;;;;6.70;1.55;;;23.80;99.90;;;25.04;58.73;99850.53;4980117;28;20026;-79
2023/07/25 06:23:51;;;;;;;10.65;1.77;;;24.20;99.90;;;26.02;57.12;99859.13;4989396;28;20068;-78
2023/07/25 06:26:16;;;;;;;8.13;2.22;;;25.10;99.90;;;26.67;54.39;99863.41;4986884;28;20482;-79
2023/07/25 06:28:43;;;;;;;10.27;1.95;;;25.90;99.90;;;27.41;53.39;99875.50;4980686;28;20063;-80
2023/07/25 06:31:09;;;;;;;7.30;1.65;;;26.00;99.90;;;25.74;55.38;99851.78;5002836;28;20032;-80
2023/07/25 06:33:35;;;;;;;6.47;1.75;;;25.20;99.90;;;23.54;59.30;99832.28;4982982;28;20034;-79
2023/07/25 06:36:01;;;;;;;6.32;1.88;;;24.10;99.90;;;22.29;62.62;99819.47;5001355;28;20079;-79
2023/07/25 06:38:31;;;;;;;7.47;1.70;;;23.10;99.90;;;21.18;66.00;99808.25;4994690;28;20557;-78
2023/07/25 06:40:57;;;;;;;10.90;1.80;;;22.10;99.90;;;20.24;68.75;99813.41;4953892;28;20047;-79
2023/07/25 06:43:23;;;;;;;7.38;1.63;;;21.40;99.90;;;19.82;70.70;99816.75;5010808;28;20108;-78
2023/07/25 06:45:52;;;;;;;5.82;1.63;;;20.90;99.90;;;19.58;72.08;99819.16;4967616;28;20080;-79
2023/07/25 06:48:18;;;;;;;12.40;2.17;;;20.60;99.90;;;19.37;73.02;99808.75;4973302;28;20112;-79
2023/07/25 06:50:48;;;;;;;13.00;2.50;;;21.00;99.90;;;22.01;68.31;99834.19;4955471;28;20053;-78
2023/07/25 06:53:14;;;;;;;10.55;2.30;;;21.70;99.90;;;22.02;67.34;99838.56;4991760;28;20090;-78
2023/07/25 06:55:40;;;;;;;12.65;2.53;;;21.80;99.90;;;21.28;67.53;99835.72;4957471;28;20093;-78
2023/07/25 06:58:06;;;;;;;11.38;2.45;;;21.80;99.90;;;21.04;68.49;99834.63;4978551;28;20542;-77
2023/07/25 07:00:41;;;;;;;;;;;21.70;99.90;;;20.52;68.77;99839.16;4996136;28;20061;-78
2023/07/25 07:03:07;;;;;;;8.30;1.95;;;21.20;99.90;;;20.15;70.18;99849.09;4991834;28;19917;-78
2023/07/25 07:05:33;;;;;;;10.38;2.15;;;20.90;99.90;;;19.72;71.34;99841.84;4996910;28;20795;-77
2023/07/25 07:08:00;;;;;;;11.45;2.22;;;20.60;99.90;;;19.55;71.97;99848.84;5004449;28;20057;-77
2023/07/25 07:10:32;;;;;;;7.57;1.83;;;20.30;99.90;;;19.27;72.96;99851.53;4989914;28;20427;-78
2023/07/25 07:12:58;;;;;;;12.68;2.00;;;;;;;18.88;75.20;99862.38;4938212;28;21108;-77
2023/07/25 07:15:24;;;;;;;10.98;2.40;;;19.90;99.90;;;18.91;75.37;99864.75;5006625;28;20129;-77
2023/07/25 07:17:53;;;;;;;11.95;2.10;;;19.80;99.90;;;18.86;75.30;99872.34;5008510;28;20104;-77
2023/07/25 07:20:22;;;;;;;11.05;2.20;;;19.70;99.90;;;18.71;75.79;99879.94;4997326;28;20049;-77
2023/07/25 07:22:47;;;;;;;11.13;2.00;;;19.60;99.90;;;18.63;76.46;99880.66;4971509;28;20038;-78
2023/07/25 07:25:13;;;;;;;11.00;2.22;;;19.50;99.90;;;18.60;77.46;99885.44;4983490;28;20111;-77
2023/07/25 07:27:39;;;;;;;9.13;2.47;;;19.60;99.90;;;19.42;75.87;99895.41;4961563;28;20063;-77
2023/07/25 07:30:05;;;;;;;;;;;19.70;99.90;;;21.55;72.41;99915.00;4977582;28;20131;-77
2023/07/25 07:32:31;;;;;;;16.73;2.50;;;22.00;99.90;;;23.92;62.65;99939.94;5031887;28;19917;-77
2023/07/25 07:34:57;;;;;;;;;;;22.20;99.90;;;26.51;57.03;99958.19;5011570;28;20052;-77
2023/07/25 07:37:25;;;;;;;8.85;1.88;;;25.30;99.90;;;26.06;55.81;99962.94;4984897;28;19920;-77
2023/07/25 07:39:53;;;;;;;7.78;1.65;;;25.50;99.90;;;25.07;56.31;99964.09;4931124;28;20042;-77
2023/07/25 07:42:18;;;;;;;11.13;2.10;;;25.00;99.90;;;23.93;58.27;99965.81;4979282;28;20072;-77
2023/07/25 07:44:44;;;;;;;9.57;2.25;;;24.40;99.90;;;23.00;60.03;99967.31;4980718;28;20470;-77
2023/07/25 07:47:10;;;;;;;9.07;2.00;;;23.70;99.90;;;22.32;61.83;99957.75;4985550;28;21538;-77
2023/07/25 07:49:36;;;;;;;11.43;1.75;;;23.20;99.90;;;22.12;62.62;99947.31;5020926;28;20038;-77
2023/07/25 07:52:04;;;;;;;6.80;1.70;;;23.00;99.90;;;22.56;63.58;99953.41;4971294;28;20057;-78
2023/07/25 07:54:32;;;;;;;14.40;2.75;;;22.90;99.90;;;22.32;61.91;99950.53;4988200;28;20087;-77
2023/07/25 07:56:58;;;;;;;5.55;1.75;;;23.20;99.90;;;23.68;60.30;99952.47;4994570;28;20064;-78
2023/07/25 07:59:24;;;;;;;10.30;1.58;;;24.30;99.90;;;25.53;55.78;99980.13;4978909;28;20029;-77
2023/07/25 08:01:50;;;;;;;9.68;1.80;;;25.80;99.90;;;27.34;52.55;99985.44;4964548;28;20463;-78
2023/07/25 08:04:16;;;;;;;12.90;2.13;;;27.20;99.90;;;28.55;48.39;100001.13;4989895;28;20068;-77
2023/07/25 08:06:42;;;;;;;10.30;1.90;;;28.20;99.90;;;29.09;49.33;100008.22;5017024;28;20054;-78
2023/07/25 08:09:08;;;;;;;9.98;1.48;;;28.30;99.90;;;29.90;48.31;100003.47;5001433;28;20635;-77
2023/07/25 08:11:36;;;;;;;10.10;1.58;;;29.10;98.50;;;28.46;48.41;99995.03;4971701;28;20439;-77
2023/07/25 08:14:02;;;;;;;15.90;2.13;;;28.70;97.10;;;28.21;48.05;100009.16;5002031;28;20030;-77
2023/07/25 08:16:27;;;;;;;13.18;1.80;;;28.50;97.80;;;28.37;48.09;100007.94;4984931;28;20053;-78
2023/07/25 08:18:53;;;;;;;10.07;1.60;;;28.60;97.90;;;29.03;47.92;100015.31;4979142;28;20439;-77
2023/07/25 08:21:19;;;;;;;7.15;1.60;;;28.80;98.70;;;28.94;47.86;100023.84;5011378;28;20124;-77
2023/07/25 08:23:45;;;;;;;17.92;2.17;;;28.70;98.20;;;28.28;48.46;100011.06;4978006;28;20034;-77
2023/07/25 08:26:10;;;;;;;9.27;1.70;;;28.30;97.70;;;27.81;49.28;100005.44;4969513;28;20143;-78
2023/07/25 08:28:36;;;;;;;8.82;2.05;;;27.90;98.10;;;27.64;49.20;99998.72;4997666;28;20095;-76
2023/07/25 08:31:06;;;;;;;19.27;2.45;;;27.90;99.70;;;28.02;50.15;100016.16;4998391;28;20490;-77
2023/07/25 08:33:36;;;;;;;12.07;1.92;;;28.20;97.60;;;28.43;47.77;100025.25;4990952;28;20033;-77
2023/07/25 08:36:02;;;;;;;19.30;2.38;;;28.10;98.60;;;27.79;49.17;100015.63;4969509;28;20044;-77
2023/07/25 08:38:31;;;;;;;7.47;1.75;;;27.70;98.00;;;26.77;50.65;99996.25;4960118;28;20431;-77
2023/07/25 08:41:16;;;;;;;11.45;2.17;;;27.00;97.80;;;25.74;51.30;99984.72;4978151;28;20037;-77
2023/07/25 08:43:44;;;;;;;11.35;2.00;;;26.20;98.50;;;24.96;53.11;99973.44;5025486;28;20030;-77
2023/07/25 08:46:13;;;;;;;9.57;1.70;;;25.40;99.90;;;24.03;55.93;99946.78;5002779;28;20038;-76
2023/07/25 08:48:41;;;;;;;7.18;2.03;;;24.60;99.90;;;23.19;57.08;99938.41;4976671;28;20391;-77
2023/07/25 08:51:18;;;;;;;9.02;1.80;;;24.10;99.90;;;22.86;57.54;99920.50;4974999;28;20123;-77
2023/07/25 08:54:16;;;;;;;8.38;1.98;;;23.60;99.90;;;22.57;57.22;99918.38;4966848;28;20522;-77
2023/07/25 08:56:42;;;;;;;6.78;1.65;;;23.40;99.90;;;22.66;57.75;99922.72;5018932;28;20163;-76
2023/07/25 08:59:10;;;;;;;6.82;1.50;;;23.30;99.90;;;22.82;59.74;99918.31;5008903;28;20038;-77
2023/07/25 09:01:37;;;;;;;7.10;1.75;;;23.40;99.90;;;22.91;58.68;99925.34;5006499;28;20057;-77
2023/07/25 09:04:08;;;;;;;21.63;2.88;;;23.40;99.90;;;23.27;58.79;99917.72;5013374;28;20557;-76
2023/07/25 09:06:34;;;;;;;16.75;3.17;;;23.70;99.90;;;23.54;57.80;99913.75;5020004;28;20038;-76
2023/07/25 09:09:03;;;;;;;11.85;2.00;;;24.00;99.90;;;23.99;57.19;99915.88;5007702;28;20065;-77
2023/07/25 09:11:29;;;;;;;7.95;1.58;;;24.50;99.90;;;24.47;55.70;99924.56;5011497;28;20026;-78
2023/07/25 09:14:01;;;;;;;4.53;1.15;;;24.80;99.90;;;24.77;54.99;99920.13;4983252;28;20042;-77
2023/07/25 09:16:33;;;;;;;6.05;1.40;;;25.00;99.90;;;24.69;53.54;99929.13;4988314;28;20046;-77
2023/07/25 09:19:02;;;;;;;8.32;1.38;;;24.90;99.90;;;24.28;54.41;99925.94;4957171;28;20133;-77
2023/07/25 09:21:31;;;;;;;5.75;1.67;;;24.40;99.30;;;23.08;55.03;99924.31;4975302;28;20044;-77
2023/07/25 09:24:02;;;;;;;6.32;1.40;;;23.90;99.40;;;22.45;55.86;99917.84;5003683;28;20069;-77
2023/07/25 09:26:33;;;;;;;7.90;1.48;;;23.50;99.70;;;22.41;55.87;99910.31;4998416;28;20038;-77
2023/07/25 09:29:02;;;;;;;2.97;1.08;;;23.40;99.60;;;22.39;55.08;99918.53;5031201;28;20048;-77
2023/07/25 09:31:33;;;;;;;5.75;1.52;;;23.30;99.90;;;22.60;55.39;99931.44;4989287;28;20049;-75
2023/07/25 09:33:59;;;;;;;7.07;1.30;;;23.30;99.90;;;22.61;54.90;99938.44;4950721;28;20042;-76
2023/07/25 09:36:30;;;;;;;7.00;1.25;;;23.20;99.90;;;22.40;55.09;99936.31;5012839;28;20054;-75
2023/07/25 09:38:58;;;;;;;7.03;1.48;;;23.10;99.90;;;22.32;55.90;99936.28;5008004;28;20551;-75
2023/07/25 09:41:28;;;;;;;10.73;1.92;;;23.20;99.90;;;22.81;55.69;99935.44;4983719;28;20458;-75
2023/07/25 09:44:05;;;;;;;5.93;1.38;;;23.40;99.90;;;23.26;54.84;99947.44;5010656;28;20606;-74
2023/07/25 09:46:33;;;;;;;6.32;1.42;;;23.70;99.90;;;23.39;54.10;99950.44;5000990;28;20034;-75
2023/07/25 09:48:59;;;;;;;6.57;1.50;;;23.60;99.30;;;22.82;53.98;99959.41;5009118;28;20162;-75
2023/07/25 09:51:25;;;;;;;4.32;1.48;;;23.20;98.60;;;21.92;55.00;99954.81;4983674;28;20030;-75
2023/07/25 09:53:55;;;;;;;6.10;1.50;;;22.70;99.50;;;21.32;56.18;99952.22;5000359;28;20058;-75
2023/07/25 09:56:24;;;;;;;7.85;1.55;;;22.30;99.90;;;21.00;57.10;99950.19;4990498;28;20030;-76
2023/07/25 09:58:57;;;;;;;5.75;1.40;;;22.10;99.90;;;20.99;57.06;99944.00;5008238;28;20034;-75
2023/07/25 10:01:27;;;;;;;7.50;1.20;;;21.90;99.90;;;21.09;58.22;99947.38;4980953;28;20046;-75
2023/07/25 10:03:59;;;;;;;8.15;1.38;;;21.90;99.90;;;21.19;57.75;99951.81;4967457;28;21529;-75
2023/07/25 10:06:25;;;;;;;6.70;1.58;;;21.90;99.90;;;21.30;57.64;99946.19;4979819;28;20447;-75
2023/07/25 10:08:52;;;;;;;6.15;1.40;;;22.10;99.90;;;21.72;56.39;99953.41;4973260;28;20560;-75
2023/07/25 10:11:20;;;;;;;8.27;1.52;;;22.50;99.90;;;22.40;57.17;99952.41;4981580;28;20034;-74
2023/07/25 10:13:51;;;;;;;5.03;1.25;;;22.90;99.90;;;22.78;54.68;99949.19;4997618;28;20049;-75
2023/07/25 10:16:26;;;;;;;9.00;1.73;;;23.30;99.90;;;22.99;54.01;99952.16;4997341;28;20048;-76